createdAt,value
2019-05-25T00:00:02.113Z,7.40
2019-05-25T00:00:38.432Z,8.88
2019-05-25T00:01:15.465Z,7.37
2019-05-25T00:01:52.581Z,8.48
2019-05-25T00:02:29.405Z,10.48
2019-05-25T00:03:06.081Z,7.40
2019-05-25T00:03:42.778Z,9.08
2019-05-25T00:04:18.868Z,7.35
2019-05-25T00:04:55.739Z,8.93
2019-05-25T00:05:32.416Z,8.78
2019-05-25T00:06:08.461Z,9.35
2019-05-25T00:06:45.058Z,8.58
2019-05-25T00:07:21.738Z,8.88
2019-05-25T00:07:57.779Z,7.53
2019-05-25T00:08:34.734Z,9.00
2019-05-25T00:09:11.361Z,8.50
2019-05-25T00:09:48.625Z,9.68
2019-05-25T00:10:26.156Z,9.93
2019-05-25T00:11:03.544Z,7.58
2019-05-25T00:11:39.988Z,7.08
2019-05-25T00:12:17.414Z,8.30
2019-05-25T00:12:54.059Z,10.18
2019-05-25T00:13:30.096Z,7.47
2019-05-25T00:14:07.097Z,8.38
2019-05-25T00:14:43.829Z,8.13
2019-05-25T00:15:19.940Z,6.92
2019-05-25T00:15:56.932Z,7.08
2019-05-25T00:16:34.677Z,7.60
2019-05-25T00:17:10.747Z,7.00
2019-05-25T00:17:47.464Z,10.50
2019-05-25T00:18:24.252Z,7.20
2019-05-25T00:19:00.660Z,7.80
2019-05-25T00:19:37.300Z,6.65
2019-05-25T00:20:14.266Z,8.30
2019-05-25T00:20:50.514Z,7.83
2019-05-25T00:21:27.639Z,7.65
2019-05-25T00:22:04.235Z,7.22
2019-05-25T00:22:40.545Z,12.13
2019-05-25T00:23:17.206Z,10.23
2019-05-25T00:23:53.894Z,10.48
2019-05-25T00:24:30.515Z,7.28
2019-05-25T00:25:07.206Z,8.88
2019-05-25T00:25:43.895Z,7.37
2019-05-25T00:26:20.146Z,7.28
2019-05-25T00:26:57.414Z,9.45
2019-05-25T00:27:34.029Z,9.30
2019-05-25T00:28:10.058Z,7.22
2019-05-25T00:28:46.687Z,8.28
2019-05-25T00:29:23.658Z,9.65
2019-05-25T00:29:59.980Z,8.45
2019-05-25T00:30:36.777Z,8.18
2019-05-25T00:31:13.696Z,10.53
2019-05-25T00:31:49.751Z,10.32
2019-05-25T00:32:26.383Z,8.50
2019-05-25T00:33:03.304Z,11.10
2019-05-25T00:33:39.329Z,9.20
2019-05-25T00:34:16.237Z,9.98
2019-05-25T00:34:53.736Z,6.30
2019-05-25T00:35:30.522Z,9.40
2019-05-25T00:36:07.193Z,6.90
2019-05-25T00:36:44.042Z,8.85
2019-05-25T00:37:20.066Z,8.63
2019-05-25T00:37:56.711Z,7.53
2019-05-25T00:38:33.299Z,8.03
2019-05-25T00:39:09.404Z,7.05
2019-05-25T00:39:46.588Z,6.95
2019-05-25T00:40:23.288Z,6.85
2019-05-25T00:40:59.292Z,6.72
2019-05-25T00:41:35.915Z,7.62
2019-05-25T00:42:12.915Z,8.50
2019-05-25T00:42:49.015Z,8.75
2019-05-25T00:43:26.342Z,9.63
2019-05-25T00:44:03.003Z,8.43
2019-05-25T00:44:39.124Z,7.83
2019-05-25T00:45:15.750Z,8.33
2019-05-25T00:45:52.527Z,8.85
2019-05-25T00:46:28.680Z,9.30
2019-05-25T00:47:06.002Z,8.80
2019-05-25T00:47:42.614Z,7.35
2019-05-25T00:48:19.054Z,9.10
2019-05-25T00:48:55.702Z,7.30
2019-05-25T00:49:32.344Z,6.90
2019-05-25T00:50:08.699Z,7.58
2019-05-25T00:50:45.340Z,8.08
2019-05-25T00:51:22.071Z,8.73
2019-05-25T00:51:58.380Z,9.88
2019-05-25T00:52:35.363Z,8.08
2019-05-25T00:53:11.983Z,9.25
2019-05-25T00:53:48.349Z,12.60
2019-05-25T00:54:28.116Z,7.62
2019-05-25T00:55:03.327Z,8.88
2019-05-25T00:55:39.525Z,7.47
2019-05-25T00:56:16.228Z,9.35
2019-05-25T00:56:52.927Z,8.25
2019-05-25T00:57:29.287Z,9.78
2019-05-25T00:58:06.237Z,7.10
2019-05-25T00:58:43.621Z,7.47
2019-05-25T00:59:19.755Z,8.30
2019-05-25T00:59:56.488Z,7.60
2019-05-25T01:00:33.549Z,7.58
2019-05-25T01:01:09.595Z,9.23
2019-05-25T01:01:46.663Z,10.85
2019-05-25T01:02:23.315Z,10.18
2019-05-25T01:02:59.365Z,10.75
2019-05-25T01:03:35.995Z,7.92
2019-05-25T01:04:13.068Z,8.33
2019-05-25T01:04:49.177Z,10.40
2019-05-25T01:05:26.094Z,9.03
2019-05-25T01:06:03.096Z,9.65
2019-05-25T01:06:39.113Z,12.75
2019-05-25T01:07:15.746Z,10.90
2019-05-25T01:07:52.429Z,10.98
2019-05-25T01:08:28.915Z,9.40
2019-05-25T01:09:07.175Z,9.58
2019-05-25T01:09:43.794Z,7.65
2019-05-25T01:10:20.063Z,8.88
2019-05-25T01:10:57.040Z,8.45
2019-05-25T01:11:33.637Z,7.37
2019-05-25T01:12:09.685Z,8.70
2019-05-25T01:12:46.737Z,9.53
2019-05-25T01:13:23.432Z,7.62
2019-05-25T01:13:59.701Z,9.53
2019-05-25T01:14:36.406Z,12.25
2019-05-25T01:15:14.721Z,7.92
2019-05-25T01:15:50.834Z,8.23
2019-05-25T01:16:28.168Z,8.45
2019-05-25T01:17:05.503Z,8.23
2019-05-25T01:17:41.934Z,8.90
2019-05-25T01:18:18.850Z,8.38
2019-05-25T01:18:55.698Z,11.57
2019-05-25T01:19:32.017Z,11.63
2019-05-25T01:20:09.385Z,8.90
2019-05-25T01:20:46.750Z,8.85
2019-05-25T01:21:22.845Z,9.93
2019-05-25T01:21:59.560Z,8.50
2019-05-25T01:22:36.162Z,8.65
2019-05-25T01:23:12.201Z,8.95
2019-05-25T01:23:49.076Z,10.55
2019-05-25T01:24:25.899Z,8.43
2019-05-25T01:25:01.967Z,9.25
2019-05-25T01:25:38.589Z,10.13
2019-05-25T01:26:15.291Z,9.35
2019-05-25T01:26:51.381Z,9.90
2019-05-25T01:27:28.555Z,10.70
2019-05-25T01:28:05.243Z,9.70
2019-05-25T01:28:41.310Z,9.65
2019-05-25T01:29:17.695Z,8.85
2019-05-25T01:29:54.431Z,10.03
2019-05-25T01:30:30.793Z,10.30
2019-05-25T01:31:07.774Z,9.83
2019-05-25T01:31:44.482Z,9.53
2019-05-25T01:32:21.263Z,9.68
2019-05-25T01:32:57.919Z,9.28
2019-05-25T01:33:34.548Z,10.28
2019-05-25T01:34:11.048Z,10.53
2019-05-25T01:34:48.185Z,9.13
2019-05-25T01:35:24.825Z,9.90
2019-05-25T01:36:01.014Z,11.00
2019-05-25T01:36:37.663Z,10.50
2019-05-25T01:37:15.208Z,11.25
2019-05-25T01:37:51.821Z,11.80
2019-05-25T01:38:28.911Z,11.43
2019-05-25T01:39:07.473Z,10.85
2019-05-25T01:39:43.573Z,10.95
2019-05-25T01:40:20.964Z,10.88
2019-05-25T01:40:58.526Z,11.10
2019-05-25T01:41:34.571Z,12.30
2019-05-25T01:42:11.557Z,10.72
2019-05-25T01:42:47.625Z,10.88
2019-05-25T01:43:23.696Z,10.40
2019-05-25T01:44:00.422Z,10.95
2019-05-25T01:44:37.043Z,11.73
2019-05-25T01:45:15.680Z,10.80
2019-05-25T01:45:53.032Z,10.08
2019-05-25T01:46:29.705Z,10.43
2019-05-25T01:47:05.753Z,10.00
2019-05-25T01:47:43.141Z,12.00
2019-05-25T01:48:20.256Z,9.75
2019-05-25T01:48:56.439Z,12.93
2019-05-25T01:49:33.145Z,11.28
2019-05-25T01:50:09.994Z,12.03
2019-05-25T01:50:46.774Z,10.53
2019-05-25T01:51:25.220Z,10.88
2019-05-25T01:52:02.612Z,10.55
2019-05-25T01:52:39.122Z,10.68
2019-05-25T01:53:16.238Z,10.90
2019-05-25T01:53:52.921Z,10.35
2019-05-25T01:54:29.500Z,11.08
2019-05-25T01:55:07.159Z,12.73
2019-05-25T01:55:44.532Z,12.00
2019-05-25T01:56:21.130Z,10.72
2019-05-25T01:56:58.047Z,14.18
2019-05-25T01:57:34.727Z,10.72
2019-05-25T01:58:10.798Z,10.98
2019-05-25T01:58:47.763Z,10.58
2019-05-25T01:59:24.448Z,10.32
2019-05-25T02:00:00.980Z,11.15
2019-05-25T02:00:37.626Z,10.68
2019-05-25T02:01:14.684Z,11.57
2019-05-25T02:01:50.788Z,11.10
2019-05-25T02:02:27.493Z,10.63
2019-05-25T02:03:04.583Z,11.00
2019-05-25T02:03:41.377Z,16.23
2019-05-25T02:04:18.370Z,10.75
2019-05-25T02:04:55.078Z,10.60
2019-05-25T02:05:31.531Z,9.78
2019-05-25T02:06:08.593Z,11.53
2019-05-25T02:06:44.651Z,10.48
2019-05-25T02:07:20.747Z,13.50
2019-05-25T02:07:57.523Z,11.10
2019-05-25T02:08:33.601Z,13.85
2019-05-25T02:09:09.954Z,12.28
2019-05-25T02:09:46.926Z,13.58
2019-05-25T02:10:23.066Z,13.60
2019-05-25T02:10:59.237Z,13.95
2019-05-25T02:11:36.316Z,13.90
2019-05-25T02:12:12.437Z,14.93
2019-05-25T02:12:48.500Z,13.35
2019-05-25T02:13:25.705Z,14.98
2019-05-25T02:14:02.384Z,15.10
2019-05-25T02:14:39.267Z,13.80
2019-05-25T02:15:15.930Z,13.13
2019-05-25T02:15:52.931Z,16.30
2019-05-25T02:16:29.232Z,15.70
2019-05-25T02:17:06.141Z,14.10
2019-05-25T02:17:42.149Z,14.93
2019-05-25T02:18:18.258Z,14.80
2019-05-25T02:18:55.483Z,14.13
2019-05-25T02:19:32.728Z,13.85
2019-05-25T02:20:08.899Z,18.77
2019-05-25T02:20:45.351Z,14.23
2019-05-25T02:21:22.093Z,16.05
2019-05-25T02:21:58.681Z,11.95
2019-05-25T02:22:34.736Z,11.78
2019-05-25T02:23:11.366Z,12.45
2019-05-25T02:23:47.128Z,11.80
2019-05-25T02:24:23.785Z,13.32
2019-05-25T02:25:16.360Z,12.15
2019-05-25T02:25:38.849Z,11.35
2019-05-25T02:26:14.980Z,11.43
2019-05-25T02:26:52.013Z,15.05
2019-05-25T02:27:27.951Z,14.85
2019-05-25T02:28:04.741Z,16.05
2019-05-25T02:28:41.474Z,13.20
2019-05-25T02:29:17.512Z,12.50
2019-05-25T02:29:54.616Z,13.30
2019-05-25T02:30:31.532Z,11.90
2019-05-25T02:31:07.048Z,12.23
2019-05-25T02:31:44.000Z,11.45
2019-05-25T02:32:20.041Z,13.85
2019-05-25T02:32:56.232Z,11.33
2019-05-25T02:33:32.348Z,11.33
2019-05-25T02:34:09.343Z,12.15
2019-05-25T02:34:45.136Z,12.40
2019-05-25T02:35:29.109Z,11.60
2019-05-25T02:36:05.324Z,11.57
2019-05-25T02:36:41.427Z,11.60
2019-05-25T02:37:17.776Z,13.73
2019-05-25T02:37:54.241Z,12.20
2019-05-25T02:38:30.093Z,11.45
2019-05-25T02:39:07.929Z,9.68
2019-05-25T02:39:44.540Z,10.38
2019-05-25T02:40:20.594Z,11.43
2019-05-25T02:40:57.473Z,10.13
2019-05-25T02:41:34.186Z,10.65
2019-05-25T02:42:09.650Z,11.63
2019-05-25T02:42:46.436Z,10.95
2019-05-25T02:43:22.469Z,10.95
2019-05-25T02:43:58.311Z,10.90
2019-05-25T02:44:34.510Z,13.72
2019-05-25T02:45:10.555Z,11.83
2019-05-25T02:45:46.030Z,10.53
2019-05-25T02:46:22.397Z,11.10
2019-05-25T02:46:58.647Z,11.00
2019-05-25T02:47:34.674Z,9.78
2019-05-25T02:48:11.306Z,12.07
2019-05-25T02:48:48.315Z,12.82
2019-05-25T02:49:24.539Z,11.40
2019-05-25T02:50:01.045Z,11.50
2019-05-25T02:50:37.906Z,10.78
2019-05-25T02:51:13.471Z,11.00
2019-05-25T02:51:50.345Z,11.48
2019-05-25T02:52:26.515Z,11.90
2019-05-25T02:53:02.962Z,12.23
2019-05-25T02:53:39.272Z,12.63
2019-05-25T02:54:15.737Z,10.58
2019-05-25T02:54:51.205Z,9.80
2019-05-25T02:55:34.284Z,11.88
2019-05-25T02:56:06.351Z,10.15
2019-05-25T02:56:42.248Z,10.32
2019-05-25T02:57:18.360Z,10.25
2019-05-25T02:57:54.666Z,11.63
2019-05-25T02:58:30.571Z,11.00
2019-05-25T02:59:07.630Z,10.45
2019-05-25T02:59:43.730Z,11.38
2019-05-25T03:00:24.081Z,10.98
2019-05-25T03:01:00.863Z,10.82
2019-05-25T03:01:37.604Z,11.57
2019-05-25T03:02:13.064Z,11.45
2019-05-25T03:02:49.145Z,10.15
2019-05-25T03:03:25.495Z,10.80
2019-05-25T03:04:01.073Z,10.28
2019-05-25T03:04:38.352Z,10.28
2019-05-25T03:05:16.132Z,12.03
2019-05-25T03:05:53.469Z,13.43
2019-05-25T03:06:30.787Z,11.18
2019-05-25T03:07:07.033Z,12.45
2019-05-25T03:07:44.147Z,12.20
2019-05-25T03:08:21.434Z,12.43
2019-05-25T03:08:59.422Z,11.85
2019-05-25T03:09:36.932Z,12.65
2019-05-25T03:10:14.544Z,11.70
2019-05-25T03:10:51.409Z,11.12
2019-05-25T03:11:29.277Z,11.68
2019-05-25T03:12:06.087Z,10.90
2019-05-25T03:12:44.243Z,11.15
2019-05-25T03:13:20.623Z,11.38
2019-05-25T03:13:57.306Z,10.72
2019-05-25T03:14:33.410Z,10.82
2019-05-25T03:15:09.730Z,11.78
2019-05-25T03:15:46.483Z,11.73
2019-05-25T03:16:22.742Z,11.22
2019-05-25T03:16:59.036Z,11.35
2019-05-25T03:17:35.823Z,11.70
2019-05-25T03:18:12.319Z,12.63
2019-05-25T03:18:47.729Z,10.48
2019-05-25T03:19:23.837Z,11.20
2019-05-25T03:20:00.542Z,11.57
2019-05-25T03:20:36.316Z,11.97
2019-05-25T03:21:13.285Z,12.58
2019-05-25T03:21:49.361Z,12.07
2019-05-25T03:22:24.957Z,15.72
2019-05-25T03:23:01.536Z,15.90
2019-05-25T03:23:38.520Z,12.23
2019-05-25T03:24:14.014Z,11.95
2019-05-25T03:24:50.072Z,11.55
2019-05-25T03:25:27.054Z,12.43
2019-05-25T03:26:02.922Z,12.85
2019-05-25T03:26:39.050Z,12.15
2019-05-25T03:27:15.154Z,11.90
2019-05-25T03:27:50.647Z,12.18
2019-05-25T03:28:27.720Z,14.50
2019-05-25T03:29:03.879Z,12.58
2019-05-25T03:29:39.328Z,12.35
2019-05-25T03:30:17.637Z,11.83
2019-05-25T03:30:53.790Z,11.95
2019-05-25T03:31:29.315Z,12.93
2019-05-25T03:32:05.872Z,13.45
2019-05-25T03:32:41.991Z,12.82
2019-05-25T03:33:17.861Z,12.23
2019-05-25T03:33:53.952Z,11.75
2019-05-25T03:34:30.621Z,12.20
2019-05-25T03:35:07.139Z,12.93
2019-05-25T03:35:43.809Z,11.78
2019-05-25T03:36:19.881Z,12.50
2019-05-25T03:36:55.516Z,11.70
2019-05-25T03:37:32.082Z,13.25
2019-05-25T03:38:08.620Z,12.05
2019-05-25T03:38:44.421Z,13.10
2019-05-25T03:39:20.512Z,16.30
2019-05-25T03:39:56.627Z,14.70
2019-05-25T03:40:32.575Z,14.70
2019-05-25T03:41:09.301Z,15.83
2019-05-25T03:41:45.989Z,19.48
2019-05-25T03:42:22.677Z,19.10
2019-05-25T03:42:58.901Z,21.68
2019-05-25T03:43:35.585Z,18.07
2019-05-25T03:44:11.451Z,16.17
2019-05-25T03:44:47.506Z,17.27
2019-05-25T03:45:24.225Z,15.48
2019-05-25T03:46:00.084Z,17.55
2019-05-25T03:46:36.376Z,14.68
2019-05-25T03:47:12.837Z,16.55
2019-05-25T03:47:48.625Z,15.05
2019-05-25T03:48:24.817Z,16.70
2019-05-25T03:49:01.401Z,13.70
2019-05-25T03:49:37.650Z,17.62
2019-05-25T03:50:13.916Z,16.42
2019-05-25T03:50:50.601Z,14.03
2019-05-25T03:51:26.570Z,14.53
2019-05-25T03:52:02.748Z,14.40
2019-05-25T03:52:39.167Z,15.80
2019-05-25T03:53:14.619Z,13.38
2019-05-25T03:53:50.693Z,13.00
2019-05-25T03:54:27.568Z,15.80
2019-05-25T03:55:03.677Z,16.35
2019-05-25T03:55:40.432Z,14.07
2019-05-25T03:56:16.889Z,12.98
2019-05-25T03:56:52.740Z,14.68
2019-05-25T03:57:29.393Z,14.58
2019-05-25T03:58:05.544Z,14.58
2019-05-25T03:58:41.620Z,14.60
2019-05-25T03:59:18.078Z,13.05
2019-05-25T03:59:54.531Z,13.88
2019-05-25T04:00:37.896Z,15.72
2019-05-25T04:01:14.381Z,16.57
2019-05-25T04:01:51.156Z,14.25
2019-05-25T04:02:26.786Z,12.43
2019-05-25T04:03:02.916Z,12.40
2019-05-25T04:03:39.723Z,12.60
2019-05-25T04:04:15.817Z,13.78
2019-05-25T04:04:52.570Z,13.72
2019-05-25T04:05:28.718Z,11.65
2019-05-25T04:06:04.839Z,13.62
2019-05-25T04:06:40.905Z,11.22
2019-05-25T04:07:17.035Z,11.57
2019-05-25T04:07:52.540Z,12.23
2019-05-25T04:08:28.749Z,11.05
2019-05-25T04:09:05.752Z,11.75
2019-05-25T04:09:41.912Z,11.05
2019-05-25T04:10:18.522Z,11.08
2019-05-25T04:10:54.952Z,10.55
2019-05-25T04:11:31.067Z,10.65
2019-05-25T04:12:08.154Z,11.20
2019-05-25T04:12:44.661Z,11.12
2019-05-25T04:13:20.133Z,12.98
2019-05-25T04:13:56.646Z,13.15
2019-05-25T04:14:33.406Z,14.60
2019-05-25T04:15:09.247Z,11.50
2019-05-25T04:15:45.311Z,12.63
2019-05-25T04:16:21.434Z,12.80
2019-05-25T04:16:57.658Z,13.10
2019-05-25T04:17:34.749Z,11.45
2019-05-25T04:18:11.400Z,12.68
2019-05-25T04:18:46.839Z,11.73
2019-05-25T04:19:22.918Z,11.50
2019-05-25T04:19:59.679Z,14.95
2019-05-25T04:20:35.796Z,13.20
2019-05-25T04:21:12.183Z,13.15
2019-05-25T04:21:48.241Z,14.58
2019-05-25T04:22:24.343Z,13.38
2019-05-25T04:23:00.484Z,12.75
2019-05-25T04:23:37.151Z,12.13
2019-05-25T04:24:17.100Z,12.55
2019-05-25T04:24:53.894Z,13.58
2019-05-25T04:25:29.996Z,15.13
2019-05-25T04:26:21.403Z,14.23
2019-05-25T04:26:44.590Z,16.10
2019-05-25T04:27:21.558Z,14.87
2019-05-25T04:27:57.241Z,16.32
2019-05-25T04:28:34.274Z,15.88
2019-05-25T04:29:10.316Z,16.25
2019-05-25T04:29:45.767Z,15.45
2019-05-25T04:30:22.020Z,15.83
2019-05-25T04:30:58.197Z,15.95
2019-05-25T04:31:33.687Z,14.80
2019-05-25T04:32:09.768Z,15.65
2019-05-25T04:32:45.858Z,15.78
2019-05-25T04:33:22.410Z,15.23
2019-05-25T04:33:58.805Z,15.10
2019-05-25T04:34:35.149Z,14.40
2019-05-25T04:35:11.507Z,15.50
2019-05-25T04:35:47.646Z,14.15
2019-05-25T04:36:24.075Z,15.10
2019-05-25T04:37:00.249Z,14.47
2019-05-25T04:37:36.966Z,14.98
2019-05-25T04:38:13.029Z,14.28
2019-05-25T04:38:48.559Z,13.20
2019-05-25T04:39:25.092Z,15.15
2019-05-25T04:40:01.188Z,14.35
2019-05-25T04:40:36.706Z,14.50
2019-05-25T04:41:12.783Z,13.50
2019-05-25T04:41:48.926Z,14.87
2019-05-25T04:42:24.668Z,14.43
2019-05-25T04:43:00.754Z,14.50
2019-05-25T04:43:37.531Z,16.62
2019-05-25T04:44:13.356Z,12.98
2019-05-25T04:44:50.369Z,13.00
2019-05-25T04:45:27.242Z,14.75
2019-05-25T04:46:03.344Z,13.35
2019-05-25T04:46:40.072Z,12.40
2019-05-25T04:47:26.624Z,13.08
2019-05-25T04:47:55.174Z,13.98
2019-05-25T04:48:31.319Z,13.50
2019-05-25T04:49:08.319Z,11.33
2019-05-25T04:49:43.773Z,11.03
2019-05-25T04:50:20.098Z,12.28
2019-05-25T04:50:56.582Z,12.55
2019-05-25T04:51:32.738Z,11.73
2019-05-25T04:52:09.445Z,13.32
2019-05-25T04:52:45.559Z,12.15
2019-05-25T04:53:21.385Z,11.75
2019-05-25T04:53:57.735Z,12.60
2019-05-25T04:54:34.120Z,14.00
2019-05-25T04:55:10.649Z,13.50
2019-05-25T04:55:46.700Z,12.37
2019-05-25T04:56:38.301Z,13.00
2019-05-25T04:57:00.520Z,12.40
2019-05-25T04:57:37.217Z,12.90
2019-05-25T04:58:13.917Z,12.90
2019-05-25T04:58:49.991Z,12.98
2019-05-25T04:59:26.119Z,13.18
2019-05-25T05:00:03.509Z,13.00
2019-05-25T05:00:39.989Z,11.88
2019-05-25T05:01:16.126Z,12.95
2019-05-25T05:01:52.153Z,13.95
2019-05-25T05:02:28.445Z,13.25
2019-05-25T05:03:04.599Z,12.63
2019-05-25T05:03:41.060Z,13.05
2019-05-25T05:04:16.932Z,11.35
2019-05-25T05:04:53.176Z,15.85
2019-05-25T05:05:30.208Z,12.18
2019-05-25T05:06:05.723Z,13.85
2019-05-25T05:06:41.755Z,13.20
2019-05-25T05:07:17.783Z,12.82
2019-05-25T05:07:53.531Z,12.63
2019-05-25T05:08:29.718Z,12.98
2019-05-25T05:09:07.534Z,13.58
2019-05-25T05:09:43.260Z,12.43
2019-05-25T05:10:19.316Z,16.07
2019-05-25T05:10:56.823Z,14.07
2019-05-25T05:11:32.309Z,14.18
2019-05-25T05:12:08.968Z,13.50
2019-05-25T05:12:45.947Z,13.00
2019-05-25T05:13:22.539Z,16.77
2019-05-25T05:13:59.370Z,13.45
2019-05-25T05:14:36.561Z,15.05
2019-05-25T05:15:12.596Z,15.68
2019-05-25T05:15:49.238Z,13.32
2019-05-25T05:16:25.940Z,12.78
2019-05-25T05:17:02.042Z,12.78
2019-05-25T05:17:38.727Z,14.65
2019-05-25T05:18:15.708Z,13.22
2019-05-25T05:18:51.894Z,13.65
2019-05-25T05:19:28.750Z,13.90
2019-05-25T05:20:06.970Z,15.05
2019-05-25T05:20:43.051Z,13.85
2019-05-25T05:21:19.112Z,16.52
2019-05-25T05:21:56.203Z,17.77
2019-05-25T05:22:32.761Z,13.28
2019-05-25T05:23:10.142Z,14.83
2019-05-25T05:23:47.107Z,12.93
2019-05-25T05:24:23.179Z,15.50
2019-05-25T05:24:59.657Z,12.43
2019-05-25T05:25:36.883Z,15.93
2019-05-25T05:26:13.243Z,12.70
2019-05-25T05:26:55.868Z,12.82
2019-05-25T05:27:28.808Z,14.18
2019-05-25T05:28:05.290Z,12.10
2019-05-25T05:28:42.267Z,14.00
2019-05-25T05:29:19.573Z,11.97
2019-05-25T05:29:56.015Z,11.95
2019-05-25T05:30:34.229Z,11.90
2019-05-25T05:31:23.298Z,11.10
2019-05-25T05:31:48.933Z,12.03
2019-05-25T05:32:27.846Z,11.63
2019-05-25T05:33:04.825Z,11.38
2019-05-25T05:33:40.962Z,12.00
2019-05-25T05:34:17.338Z,12.28
2019-05-25T05:34:54.556Z,11.93
2019-05-25T05:35:32.369Z,11.00
2019-05-25T05:36:10.024Z,11.05
2019-05-25T05:36:46.793Z,11.83
2019-05-25T05:37:24.863Z,12.07
2019-05-25T05:38:05.112Z,12.20
2019-05-25T05:38:42.246Z,10.60
2019-05-25T05:39:18.132Z,11.33
2019-05-25T05:39:57.315Z,11.40
2019-05-25T05:40:36.402Z,13.55
2019-05-25T05:41:14.140Z,11.93
2019-05-25T05:41:51.228Z,12.30
2019-05-25T05:42:29.692Z,11.30
2019-05-25T05:43:10.116Z,13.18
2019-05-25T05:43:48.809Z,11.78
2019-05-25T05:44:27.758Z,12.15
2019-05-25T05:45:04.754Z,11.93
2019-05-25T05:45:43.171Z,14.40
2019-05-25T05:46:21.773Z,12.75
2019-05-25T05:46:59.854Z,12.35
2019-05-25T05:47:37.421Z,13.08
2019-05-25T05:48:14.795Z,12.25
2019-05-25T05:48:52.407Z,12.90
2019-05-25T05:49:30.158Z,14.00
2019-05-25T05:50:07.886Z,12.33
2019-05-25T05:50:46.523Z,12.78
2019-05-25T05:51:23.397Z,13.15
2019-05-25T05:52:05.238Z,12.50
2019-05-25T05:52:41.016Z,13.08
2019-05-25T05:53:21.708Z,14.13
2019-05-25T05:53:58.249Z,16.27
2019-05-25T05:54:34.140Z,12.85
2019-05-25T05:55:12.593Z,13.78
2019-05-25T05:55:49.566Z,13.25
2019-05-25T05:56:26.153Z,15.68
2019-05-25T05:57:11.957Z,14.45
2019-05-25T05:57:41.289Z,14.45
2019-05-25T05:58:17.811Z,14.80
2019-05-25T05:58:54.478Z,13.38
2019-05-25T05:59:31.365Z,12.88
2019-05-25T06:00:08.576Z,15.60
2019-05-25T06:00:45.496Z,13.22
2019-05-25T06:01:21.859Z,13.03
2019-05-25T06:01:58.363Z,12.80
2019-05-25T06:02:35.059Z,13.70
2019-05-25T06:03:12.031Z,12.45
2019-05-25T06:03:48.151Z,13.80
2019-05-25T06:04:25.183Z,11.63
2019-05-25T06:05:03.167Z,11.53
2019-05-25T06:05:39.627Z,13.68
2019-05-25T06:06:16.235Z,11.78
2019-05-25T06:06:52.894Z,17.17
2019-05-25T06:07:29.621Z,12.28
2019-05-25T06:08:06.413Z,15.13
2019-05-25T06:08:42.664Z,12.63
2019-05-25T06:09:19.121Z,10.43
2019-05-25T06:09:55.321Z,12.07
2019-05-25T06:10:31.438Z,10.95
2019-05-25T06:11:07.487Z,11.63
2019-05-25T06:11:44.117Z,12.70
2019-05-25T06:12:21.168Z,12.45
2019-05-25T06:12:57.263Z,10.50
2019-05-25T06:13:33.403Z,10.93
2019-05-25T06:14:10.128Z,11.80
2019-05-25T06:14:46.925Z,10.88
2019-05-25T06:15:24.001Z,11.85
2019-05-25T06:16:01.476Z,11.78
2019-05-25T06:16:37.911Z,11.15
2019-05-25T06:17:14.559Z,11.18
2019-05-25T06:17:51.579Z,11.03
2019-05-25T06:18:27.610Z,11.12
2019-05-25T06:19:03.713Z,12.45
2019-05-25T06:19:39.771Z,13.90
2019-05-25T06:20:15.811Z,11.05
2019-05-25T06:20:51.877Z,9.80
2019-05-25T06:21:28.547Z,12.80
2019-05-25T06:22:04.666Z,10.32
2019-05-25T06:22:41.326Z,10.58
2019-05-25T06:23:20.642Z,15.20
2019-05-25T06:23:56.803Z,13.45
2019-05-25T06:24:33.512Z,10.45
2019-05-25T06:25:10.319Z,10.30
2019-05-25T06:25:45.769Z,14.68
2019-05-25T06:26:22.420Z,9.90
2019-05-25T06:26:59.290Z,9.10
2019-05-25T06:27:34.788Z,9.93
2019-05-25T06:28:11.441Z,10.15
2019-05-25T06:28:47.654Z,11.43
2019-05-25T06:29:23.306Z,10.88
2019-05-25T06:30:00.416Z,10.65
2019-05-25T06:30:36.429Z,9.35
2019-05-25T06:31:12.228Z,9.38
2019-05-25T06:31:48.874Z,12.78
2019-05-25T06:32:25.120Z,11.12
2019-05-25T06:33:00.863Z,9.90
2019-05-25T06:33:37.489Z,9.83
2019-05-25T06:34:13.541Z,9.95
2019-05-25T06:34:49.054Z,9.55
2019-05-25T06:35:25.144Z,9.63
2019-05-25T06:36:01.206Z,9.58
2019-05-25T06:36:37.976Z,9.88
2019-05-25T06:37:14.919Z,8.65
2019-05-25T06:37:51.454Z,9.58
2019-05-25T06:38:27.869Z,9.68
2019-05-25T06:39:04.790Z,12.60
2019-05-25T06:39:41.448Z,9.80
2019-05-25T06:40:17.807Z,8.70
2019-05-25T06:40:54.498Z,10.38
2019-05-25T06:41:31.652Z,9.00
2019-05-25T06:42:07.692Z,9.78
2019-05-25T06:42:44.782Z,10.53
2019-05-25T06:43:21.418Z,12.28
2019-05-25T06:43:57.804Z,10.38
2019-05-25T06:44:34.766Z,9.88
2019-05-25T06:45:12.141Z,8.88
2019-05-25T06:45:48.232Z,9.13
2019-05-25T06:46:24.926Z,9.40
2019-05-25T06:47:01.789Z,9.75
2019-05-25T06:47:37.861Z,8.48
2019-05-25T06:48:14.465Z,8.80
2019-05-25T06:48:51.488Z,12.37
2019-05-25T06:49:28.040Z,8.78
2019-05-25T06:50:05.667Z,10.23
2019-05-25T06:50:42.294Z,10.28
2019-05-25T06:51:18.333Z,10.82
2019-05-25T06:51:55.850Z,9.53
2019-05-25T06:52:33.049Z,11.83
2019-05-25T06:53:09.089Z,9.65
2019-05-25T06:53:45.737Z,8.90
2019-05-25T06:54:22.415Z,9.30
2019-05-25T06:54:58.938Z,9.10
2019-05-25T06:55:35.599Z,8.90
2019-05-25T06:56:12.247Z,10.50
2019-05-25T06:56:48.613Z,8.50
2019-05-25T06:57:25.600Z,12.75
2019-05-25T06:58:03.008Z,9.90
2019-05-25T06:58:39.035Z,9.25
2019-05-25T06:59:16.083Z,10.13
2019-05-25T06:59:53.406Z,9.73
2019-05-25T07:00:29.490Z,11.33
2019-05-25T07:01:06.361Z,9.58
2019-05-25T07:01:43.472Z,10.23
2019-05-25T07:02:22.589Z,9.55
2019-05-25T07:02:58.575Z,9.65
2019-05-25T07:03:35.314Z,11.03
2019-05-25T07:04:11.432Z,12.03
2019-05-25T07:04:48.743Z,9.28
2019-05-25T07:05:25.832Z,13.35
2019-05-25T07:06:02.015Z,10.53
2019-05-25T07:06:38.751Z,9.70
2019-05-25T07:07:15.794Z,10.08
2019-05-25T07:07:54.709Z,10.50
2019-05-25T07:08:31.312Z,9.25
2019-05-25T07:09:10.183Z,14.78
2019-05-25T07:09:46.546Z,9.55
2019-05-25T07:10:23.221Z,8.28
2019-05-25T07:10:59.937Z,9.15
2019-05-25T07:11:35.975Z,8.38
2019-05-25T07:12:12.621Z,14.73
2019-05-25T07:12:49.684Z,9.68
2019-05-25T07:13:28.491Z,9.25
2019-05-25T07:14:04.215Z,11.45
2019-05-25T07:14:40.883Z,9.63
2019-05-25T07:15:17.212Z,10.72
2019-05-25T07:15:54.664Z,10.20
2019-05-25T07:16:31.379Z,8.83
2019-05-25T07:17:07.879Z,10.63
2019-05-25T07:17:44.515Z,8.80
2019-05-25T07:18:21.159Z,10.28
2019-05-25T07:18:57.349Z,10.85
2019-05-25T07:19:34.031Z,8.28
2019-05-25T07:20:10.989Z,9.90
2019-05-25T07:20:47.387Z,9.48
2019-05-25T07:21:24.905Z,8.70
2019-05-25T07:22:01.844Z,9.40
2019-05-25T07:22:38.117Z,9.05
2019-05-25T07:23:15.274Z,9.85
2019-05-25T07:23:52.275Z,9.93
2019-05-25T07:24:28.369Z,13.72
2019-05-25T07:25:05.968Z,9.28
2019-05-25T07:25:42.949Z,9.88
2019-05-25T07:26:19.032Z,9.83
2019-05-25T07:26:55.720Z,11.12
2019-05-25T07:27:32.785Z,9.28
2019-05-25T07:28:09.178Z,9.33
2019-05-25T07:28:46.189Z,9.30
2019-05-25T07:29:23.144Z,11.08
2019-05-25T07:29:59.506Z,8.93
2019-05-25T07:30:36.242Z,10.20
2019-05-25T07:31:12.892Z,10.23
2019-05-25T07:31:49.358Z,8.25
2019-05-25T07:32:27.400Z,9.25
2019-05-25T07:33:04.436Z,8.58
2019-05-25T07:33:40.816Z,9.25
2019-05-25T07:34:17.433Z,9.45
2019-05-25T07:34:54.414Z,8.28
2019-05-25T07:35:30.560Z,9.10
2019-05-25T07:36:07.937Z,8.93
2019-05-25T07:36:44.819Z,10.13
2019-05-25T07:37:21.236Z,8.00
2019-05-25T07:37:57.940Z,9.30
2019-05-25T07:38:35.432Z,8.70
2019-05-25T07:39:11.840Z,7.90
2019-05-25T07:39:49.154Z,11.43
2019-05-25T07:40:26.860Z,13.60
2019-05-25T07:41:03.068Z,11.95
2019-05-25T07:41:39.963Z,7.87
2019-05-25T07:42:19.908Z,10.43
2019-05-25T07:42:54.466Z,9.38
2019-05-25T07:43:31.155Z,8.10
2019-05-25T07:44:07.820Z,9.05
2019-05-25T07:44:44.643Z,12.07
2019-05-25T07:45:21.800Z,10.58
2019-05-25T07:45:58.871Z,10.38
2019-05-25T07:46:34.938Z,11.22
2019-05-25T07:47:11.624Z,11.80
2019-05-25T07:47:48.271Z,8.80
2019-05-25T07:48:24.506Z,11.85
2019-05-25T07:49:01.793Z,9.03
2019-05-25T07:49:38.855Z,11.33
2019-05-25T07:50:15.543Z,8.88
2019-05-25T07:50:52.214Z,13.00
2019-05-25T07:51:29.739Z,9.88
2019-05-25T07:52:06.272Z,9.45
2019-05-25T07:52:42.935Z,13.38
2019-05-25T07:53:19.581Z,14.80
2019-05-25T07:53:55.719Z,8.65
2019-05-25T07:54:32.447Z,9.58
2019-05-25T07:55:09.550Z,10.18
2019-05-25T07:55:45.982Z,9.63
2019-05-25T07:56:23.653Z,11.48
2019-05-25T07:57:00.926Z,10.28